• Join FlightAware (Why Join?)
  • Login
  • US Flag 
11:07PM EST


 

Airport Tracker/Info


-or-


 

Live Flight TrackerFlight Track Log ✈ JBU185 ✈ 31-Aug-2013 ✈ KROC - KJFK

Flight Track Log - Related Links

Times and Time Zones

All times are in EDT time to prevent confusion due to time zone crossing. See the JBU185 flight status page for this flight to view local times or setup timezone preferences in your user account.

Time Position Orientation Groundspeed Altitude Reporting Facility
EDT Latitude Longitude Course Direction KTS MPH feet Rate Location/Type
06:03AM 43.1014 -77.6942 121° Southeast 148 170 1,300  Level Cleveland Center
06:04AM 43.0539 -77.7106 194° South 207 238 3,100 1,969 Climbing Cleveland Center
06:05AM 43.0225 -77.6183 115° Southeast 266 306 5,600 2,736 Climbing Cleveland Center
06:06AM 42.9281 -77.2504 127° Southeast  Level FlightAware Approximate
06:06AM 42.9906 -77.5119 112° Southeast 287 330 8,800  Level Cleveland Center
06:07AM 42.8812 -77.1452 121° Southeast  Level FlightAware Approximate
06:07AM 42.9519 -77.3947 114° Southeast 315 362 11,200  Level Cleveland Center
06:08AM 42.8342 -77.0394 121° Southeast  Level FlightAware Approximate
06:09AM 42.8811 -77.1786 114° Southeast 374 430 15,600  Level Boston Center
06:10AM 42.8367 -77.0447 114° Southeast 387 445 18,500 2,650 Climbing Boston Center
06:11AM 42.7878 -76.9108 116° Southeast 387 445 20,900 1,240 Climbing Boston Center
06:12AM 42.7322 -76.7853 121° Southeast 387 445 21,000 50 Climbing Boston Center
06:13AM 42.6725 -76.6539 122° Southeast 397 457 21,000  Level Boston Center
06:14AM 42.6167 -76.5289 121° Southeast 402 463 21,000  Level Boston Center
06:15AM 42.5586 -76.4008 122° Southeast 402 463 21,000  Level Boston Center
06:16AM 42.5025 -76.2733 121° Southeast 402 463 21,000  Level Boston Center
06:17AM 42.4519 -76.1606 121° Southeast 397 457 21,000  Level Boston Center
06:18AM 42.3936 -76.0303 121° Southeast 397 457 21,000  Level Boston Center
06:19AM 42.3350 -75.9061 123° Southeast 397 457 21,000  Level Boston Center
06:20AM 42.2706 -75.7594 121° Southeast 404 465 21,000  Level Boston Center
06:21AM 42.2097 -75.6303 122° Southeast 404 465 21,000  Level Boston Center
06:22AM 42.1506 -75.5039 122° Southeast 404 465 21,000  Level Boston Center
06:23AM 42.1061 -75.3703 114° Southeast 398 458 21,000  Level Boston Center
06:24AM 42.0678 -75.2342 111° Southeast 386 444 21,000  Level Boston Center
06:25AM 42.0294 -75.0956 110° East 386 444 21,000  Level Boston Center
06:26AM 41.9911 -74.9542 110° East 396 456 21,000  Level Boston Center
06:27AM 41.9525 -74.8103 110° East 396 456 21,000  Level Boston Center
06:28AM 41.9117 -74.6719 112° Southeast 396 456 21,000  Level Boston Center
06:29AM 41.8706 -74.5311 111° Southeast 396 456 21,000  Level Boston Center
06:30AM 41.8411 -74.4297 111° Southeast 386 444 21,000  Level Boston Center
06:31AM 41.7994 -74.2947 112° Southeast 371 427 21,000 -393 Level Boston Center
06:32AM 41.7661 -74.1658 109° East 366 421 20,200 -375 Descending Boston Center
06:33AM 41.6569 -73.9972 131° Southeast 324 373 20,000 -75 Descending New York Center
06:34AM 41.5603 -74.0231 191° South 303 349 20,000  Level New York Center
06:35AM 41.4681 -74.0436 189° South 321 369 20,000  Level New York Center
06:36AM 41.3736 -74.0775 195° South 340 391 20,000  Level New York Center
06:37AM 41.2944 -74.1456 213° Southwest 341 392 20,000  Level New York Center
06:38AM 41.2117 -74.2047 208° Southwest 341 392 20,000  Level New York Center
06:39AM 41.1347 -74.2725 214° Southwest 341 392 20,000  Level New York Center
06:40AM 41.0556 -74.3400 213° Southwest 341 392 20,000 -50 Level New York Center
06:41AM 40.9689 -74.3819 200° South 332 382 19,900 -450 Descending New York Center
06:42AM 40.9114 -74.2883 129° Southeast 256 295 19,100 -450 Descending New York Center
06:43AM 40.9131 -74.1567 89° East 249 287 19,000 -50 Descending New York Center
06:44AM 40.8506 -74.0822 138° Southeast 319 367 19,000 -647 Level New York Center
06:45AM 40.7833 -74.0500 160° South 348 400 17,900 -1,608 Descending New York TRACON
06:46AM 40.7000 -74.0167 163° South 347 399 16,400 -1,486 Descending New York TRACON
06:47AM 40.6167 -73.9833 163° South 335 386 15,200 -1,200 Descending New York TRACON
06:48AM 40.5167 -73.9500 166° South 328 377 14,000 -1,105 Descending New York TRACON
06:49AM 40.4500 -73.9167 159° South 320 368 13,100 -1,000 Descending New York TRACON
06:50AM 40.3667 -73.9167 180° South 308 354 12,200 -1,074 Descending New York TRACON
06:50AM 40.3239 -73.9181 181° South 309 356 11,400 -1,516 Descending New York Center
06:51AM 40.2367 -73.9006 171° South 299 344 9,800 -1,400 Descending New York Center
06:52AM 40.1764 -73.8244 136° Southeast 288 331 8,600 -1,250 Descending New York Center
06:53AM 40.1706 -73.7236 94° East 255 293 7,300 -1,350 Descending New York Center
06:54AM 40.2506 -73.6864 20° North 236 272 5,900 -1,300 Descending New York Center
06:55AM 40.3206 -73.6375 28° Northeast 266 306 4,700 -900 Descending New York Center
06:56AM 40.3906 -73.5858 29° Northeast 284 327 4,100 -350 Descending New York Center
06:57AM 40.4606 -73.5369 28° Northeast 284 327 4,000 -47 Descending New York Center
06:58AM 40.5333 -73.4833 29° Northeast 292 336 4,000  Level New York TRACON
06:59AM 40.6000 -73.4333 30° Northeast 289 333 4,000  Level New York TRACON
07:00AM 40.6667 -73.3833 30° Northeast 251 289 4,000  Level New York TRACON
07:01AM 40.7333 -73.3667 11° North 243 280 4,000 -250 Level New York TRACON
07:02AM 40.7833 -73.4167 323° Northwest 217 250 3,500 -600 Descending New York TRACON
07:03AM 40.8333 -73.4500 333° Northwest 191 220 2,800 -789 Descending New York TRACON
07:04AM 40.8667 -73.4667 339° North 182 209 2,000 -421 Descending New York TRACON
07:05AM 40.8667 -73.5167 270° West 169 194 2,000  Level New York TRACON
07:06AM 40.8500 -73.5667 246° West 162 186 2,000  Level New York TRACON
07:07AM 40.8167 -73.6167 229° Southwest 159 183 2,000 53 Level New York TRACON
07:08AM 40.7833 -73.6500 217° Southwest 163 188 2,100 50 Climbing New York TRACON
07:09AM 40.7500 -73.6833 217° Southwest 162 186 2,100 -300 Level New York TRACON
07:10AM 40.7167 -73.7000 201° Southwest 141 162 1,500 -650 Descending New York TRACON
07:11AM 40.6833 -73.7333 217° Southwest 133 153 800 -700 Descending New York TRACON